sensor_id;sensor_type;location;lat;lon;timestamp;pressure;altitude;pressure_sealevel;temperature;humidity
18858;BME280;9558;50.178;8.370;2023-03-23T00:01:22;97423.19;;;12.38;71.59
18858;BME280;9558;50.178;8.370;2023-03-23T00:03:52;97416.59;;;12.42;71.47
18858;BME280;9558;50.178;8.370;2023-03-23T00:06:22;97418.16;;;12.43;71.72
18858;BME280;9558;50.178;8.370;2023-03-23T00:08:52;97413.41;;;12.40;72.12
18858;BME280;9558;50.178;8.370;2023-03-23T00:11:23;97410.81;;;12.40;72.01
18858;BME280;9558;50.178;8.370;2023-03-23T00:13:52;97413.19;;;12.41;71.97
18858;BME280;9558;50.178;8.370;2023-03-23T00:16:21;97409.81;;;12.41;72.07
18858;BME280;9558;50.178;8.370;2023-03-23T00:18:56;97410.81;;;12.40;72.30
18858;BME280;9558;50.178;8.370;2023-03-23T00:21:24;97410.81;;;12.40;72.28
18858;BME280;9558;50.178;8.370;2023-03-23T00:23:59;97408.22;;;12.40;72.17
18858;BME280;9558;50.178;8.370;2023-03-23T00:26:26;97406.81;;;12.37;72.65
18858;BME280;9558;50.178;8.370;2023-03-23T00:28:55;97406.44;;;12.34;73.26
18858;BME280;9558;50.178;8.370;2023-03-23T00:31:21;97400.66;;;12.32;73.10
18858;BME280;9558;50.178;8.370;2023-03-23T00:33:48;97402.47;;;12.31;73.35
18858;BME280;9558;50.178;8.370;2023-03-23T00:36:14;97399.06;;;12.31;73.70
18858;BME280;9558;50.178;8.370;2023-03-23T00:38:43;97388.91;;;12.29;74.41
18858;BME280;9558;50.178;8.370;2023-03-23T00:41:10;97392.09;;;12.24;74.50
18858;BME280;9558;50.178;8.370;2023-03-23T00:43:37;97400.28;;;12.21;74.75
18858;BME280;9558;50.178;8.370;2023-03-23T00:46:04;97387.72;;;12.18;74.83
18858;BME280;9558;50.178;8.370;2023-03-23T00:48:35;97390.75;;;12.15;75.02
18858;BME280;9558;50.178;8.370;2023-03-23T00:51:06;97384.16;;;12.13;75.02
18858;BME280;9558;50.178;8.370;2023-03-23T00:53:35;97372.81;;;12.07;75.40
18858;BME280;9558;50.178;8.370;2023-03-23T00:56:02;97375.81;;;12.04;76.94
18858;BME280;9558;50.178;8.370;2023-03-23T00:58:29;97376.22;;;12.01;76.25
18858;BME280;9558;50.178;8.370;2023-03-23T01:00:56;97375.44;;;11.93;76.46
18858;BME280;9558;50.178;8.370;2023-03-23T01:03:22;97377.81;;;11.88;77.15
18858;BME280;9558;50.178;8.370;2023-03-23T01:05:51;97380.81;;;11.85;77.64
18858;BME280;9558;50.178;8.370;2023-03-23T01:08:18;97367.06;;;11.78;77.94
18858;BME280;9558;50.178;8.370;2023-03-23T01:10:46;97382.03;;;11.76;77.79
18858;BME280;9558;50.178;8.370;2023-03-23T01:13:14;97392.97;;;11.71;77.60
18858;BME280;9558;50.178;8.370;2023-03-23T01:15:42;97408.16;;;11.68;77.84
18858;BME280;9558;50.178;8.370;2023-03-23T01:18:09;97405.34;;;11.63;78.10
18858;BME280;9558;50.178;8.370;2023-03-23T01:20:36;97391.81;;;11.61;78.55
18858;BME280;9558;50.178;8.370;2023-03-23T01:23:03;97388.59;;;11.58;79.06
18858;BME280;9558;50.178;8.370;2023-03-23T01:25:32;97395.38;;;11.53;79.53
18858;BME280;9558;50.178;8.370;2023-03-23T01:27:58;97401.78;;;11.50;79.72
18858;BME280;9558;50.178;8.370;2023-03-23T01:30:25;97384.63;;;11.49;79.91
18858;BME280;9558;50.178;8.370;2023-03-23T01:32:54;97378.25;;;11.45;79.51
18858;BME280;9558;50.178;8.370;2023-03-23T01:35:21;97368.28;;;11.49;79.58
18858;BME280;9558;50.178;8.370;2023-03-23T01:37:47;97366.28;;;11.44;79.85
18858;BME280;9558;50.178;8.370;2023-03-23T01:40:15;97359.50;;;11.43;80.29
18858;BME280;9558;50.178;8.370;2023-03-23T01:42:42;97368.72;;;11.39;83.29
18858;BME280;9558;50.178;8.370;2023-03-23T01:45:23;97370.09;;;11.41;81.06
18858;BME280;9558;50.178;8.370;2023-03-23T01:47:55;97362.50;;;11.40;81.59
18858;BME280;9558;50.178;8.370;2023-03-23T01:50:23;97359.53;;;11.36;82.22
18858;BME280;9558;50.178;8.370;2023-03-23T01:52:52;97350.78;;;11.31;82.13
18858;BME280;9558;50.178;8.370;2023-03-23T01:55:20;97346.78;;;11.28;82.63
18858;BME280;9558;50.178;8.370;2023-03-23T01:57:48;97354.75;;;11.27;82.52
18858;BME280;9558;50.178;8.370;2023-03-23T02:00:15;97363.13;;;11.22;83.18
18858;BME280;9558;50.178;8.370;2023-03-23T02:02:43;97369.09;;;11.22;83.23
18858;BME280;9558;50.178;8.370;2023-03-23T02:05:14;97361.13;;;11.17;86.35
18858;BME280;9558;50.178;8.370;2023-03-23T02:07:45;97366.91;;;11.19;84.03
18858;BME280;9558;50.178;8.370;2023-03-23T02:10:13;97364.50;;;11.18;84.43
18858;BME280;9558;50.178;8.370;2023-03-23T02:12:39;97347.56;;;11.15;84.28
18858;BME280;9558;50.178;8.370;2023-03-23T02:15:06;97345.78;;;11.16;83.97
18858;BME280;9558;50.178;8.370;2023-03-23T02:17:38;97334.03;;;11.20;83.08
18858;BME280;9558;50.178;8.370;2023-03-23T02:20:18;97334.03;;;11.20;84.07
18858;BME280;9558;50.178;8.370;2023-03-23T02:26:01;97328.66;;;11.28;83.08
18858;BME280;9558;50.178;8.370;2023-03-23T02:28:41;97344.19;;;11.35;81.63
18858;BME280;9558;50.178;8.370;2023-03-23T02:31:22;97348.16;;;11.44;80.32
18858;BME280;9558;50.178;8.370;2023-03-23T02:33:57;97344.38;;;11.53;79.70
18858;BME280;9558;50.178;8.370;2023-03-23T02:36:29;97336.38;;;11.62;79.40
18858;BME280;9558;50.178;8.370;2023-03-23T02:39:01;97337.75;;;11.71;79.62
18858;BME280;9558;50.178;8.370;2023-03-23T02:41:32;97338.97;;;11.75;79.92
18858;BME280;9558;50.178;8.370;2023-03-23T02:44:02;97330.56;;;11.80;81.18
18858;BME280;9558;50.178;8.370;2023-03-23T02:46:30;97317.19;;;11.83;81.78
18858;BME280;9558;50.178;8.370;2023-03-23T02:48:59;97320.00;;;11.81;82.03
18858;BME280;9558;50.178;8.370;2023-03-23T02:51:26;97327.19;;;11.79;81.85
18858;BME280;9558;50.178;8.370;2023-03-23T02:53:55;97327.19;;;11.79;81.93
18858;BME280;9558;50.178;8.370;2023-03-23T02:56:23;97333.94;;;11.80;82.22
18858;BME280;9558;50.178;8.370;2023-03-23T02:58:51;97324.00;;;11.77;82.33
18858;BME280;9558;50.178;8.370;2023-03-23T03:01:48;97306.88;;;11.76;82.76
18858;BME280;9558;50.178;8.370;2023-03-23T03:04:19;97303.66;;;11.74;82.96
18858;BME280;9558;50.178;8.370;2023-03-23T03:06:54;97295.88;;;11.74;83.13
18858;BME280;9558;50.178;8.370;2023-03-23T03:09:31;97296.28;;;11.71;84.38
18858;BME280;9558;50.178;8.370;2023-03-23T03:12:08;97298.91;;;11.64;85.76
18858;BME280;9558;50.178;8.370;2023-03-23T03:14:39;97296.91;;;11.59;85.12
18858;BME280;9558;50.178;8.370;2023-03-23T03:17:14;97294.75;;;11.56;86.22
18858;BME280;9558;50.178;8.370;2023-03-23T03:19:48;97295.34;;;11.52;86.86
18858;BME280;9558;50.178;8.370;2023-03-23T03:22:17;97288.56;;;11.44;87.14
18858;BME280;9558;50.178;8.370;2023-03-23T03:24:47;97285.81;;;11.39;87.56
18858;BME280;9558;50.178;8.370;2023-03-23T03:27:17;97294.16;;;11.34;87.82
18858;BME280;9558;50.178;8.370;2023-03-23T03:29:46;97294.56;;;11.31;88.66
18858;BME280;9558;50.178;8.370;2023-03-23T03:32:18;97290.00;;;11.27;89.05
18858;BME280;9558;50.178;8.370;2023-03-23T03:34:48;97292.38;;;11.21;89.81
18858;BME280;9558;50.178;8.370;2023-03-23T03:37:15;97301.38;;;11.19;91.80
18858;BME280;9558;50.178;8.370;2023-03-23T03:39:44;97299.97;;;11.16;92.85
18858;BME280;9558;50.178;8.370;2023-03-23T03:42:10;97302.97;;;11.13;90.79
18858;BME280;9558;50.178;8.370;2023-03-23T03:44:37;97298.16;;;11.10;90.95
18858;BME280;9558;50.178;8.370;2023-03-23T03:47:03;97311.53;;;11.07;91.07
18858;BME280;9558;50.178;8.370;2023-03-23T03:49:30;97298.56;;;11.07;92.43
18858;BME280;9558;50.178;8.370;2023-03-23T03:51:58;97307.72;;;11.03;92.61
18858;BME280;9558;50.178;8.370;2023-03-23T03:54:24;97306.94;;;10.96;96.68
18858;BME280;9558;50.178;8.370;2023-03-23T03:56:51;97300.97;;;10.95;94.33
18858;BME280;9558;50.178;8.370;2023-03-23T03:59:23;97301.16;;;10.87;95.96
18858;BME280;9558;50.178;8.370;2023-03-23T04:01:49;97310.53;;;10.88;95.25
18858;BME280;9558;50.178;8.370;2023-03-23T04:04:19;97303.94;;;10.85;95.53
18858;BME280;9558;50.178;8.370;2023-03-23T04:06:45;97304.16;;;10.84;95.52
18858;BME280;9558;50.178;8.370;2023-03-23T04:09:15;97314.50;;;10.84;96.20
18858;BME280;9558;50.178;8.370;2023-03-23T04:11:42;97315.28;;;10.84;96.50
18858;BME280;9558;50.178;8.370;2023-03-23T04:14:08;97322.47;;;10.82;97.23
18858;BME280;9558;50.178;8.370;2023-03-23T04:16:35;97326.03;;;10.81;96.83
18858;BME280;9558;50.178;8.370;2023-03-23T04:19:01;97319.28;;;10.80;96.93
18858;BME280;9558;50.178;8.370;2023-03-23T04:21:28;97332.81;;;10.82;97.50
18858;BME280;9558;50.178;8.370;2023-03-23T04:23:55;97332.81;;;10.82;96.73
18858;BME280;9558;50.178;8.370;2023-03-23T04:26:26;97329.44;;;10.82;99.12
18858;BME280;9558;50.178;8.370;2023-03-23T04:28:54;97339.97;;;10.87;97.03
18858;BME280;9558;50.178;8.370;2023-03-23T04:31:20;97341.59;;;10.88;96.75
18858;BME280;9558;50.178;8.370;2023-03-23T04:33:50;97343.78;;;10.91;97.10
18858;BME280;9558;50.178;8.370;2023-03-23T04:36:17;97340.81;;;10.87;96.57
18858;BME280;9558;50.178;8.370;2023-03-23T04:38:45;97340.00;;;10.94;95.89
18858;BME280;9558;50.178;8.370;2023-03-23T04:41:11;97340.81;;;11.01;95.64
18858;BME280;9558;50.178;8.370;2023-03-23T04:43:39;97344.78;;;10.97;95.49
18858;BME280;9558;50.178;8.370;2023-03-23T04:46:08;97338.22;;;11.07;94.71
18858;BME280;9558;50.178;8.370;2023-03-23T04:48:34;97327.84;;;11.14;94.76
18858;BME280;9558;50.178;8.370;2023-03-23T04:51:04;97323.47;;;11.21;93.71
18858;BME280;9558;50.178;8.370;2023-03-23T04:53:31;97327.25;;;11.26;93.23
18858;BME280;9558;50.178;8.370;2023-03-23T04:55:58;97325.69;;;11.24;93.62
18858;BME280;9558;50.178;8.370;2023-03-23T04:58:26;97325.28;;;11.28;93.59
18858;BME280;9558;50.178;8.370;2023-03-23T05:00:54;97319.69;;;11.31;93.86
18858;BME280;9558;50.178;8.370;2023-03-23T05:03:21;97332.44;;;11.32;93.63
18858;BME280;9558;50.178;8.370;2023-03-23T05:05:47;97329.06;;;11.32;93.44
18858;BME280;9558;50.178;8.370;2023-03-23T05:08:17;97324.06;;;11.30;95.01
18858;BME280;9558;50.178;8.370;2023-03-23T05:10:49;97320.88;;;11.35;93.69
18858;BME280;9558;50.178;8.370;2023-03-23T05:13:15;97327.63;;;11.36;93.16
18858;BME280;9558;50.178;8.370;2023-03-23T05:15:42;97329.25;;;11.37;92.85
18858;BME280;9558;50.178;8.370;2023-03-23T05:18:09;97328.25;;;11.38;93.05
18858;BME280;9558;50.178;8.370;2023-03-23T05:20:36;97318.50;;;11.33;93.71
18858;BME280;9558;50.178;8.370;2023-03-23T05:23:03;97322.88;;;11.39;92.74
18858;BME280;9558;50.178;8.370;2023-03-23T05:25:30;97325.25;;;11.41;92.86
18858;BME280;9558;50.178;8.370;2023-03-23T05:27:58;97325.66;;;11.45;92.61
18858;BME280;9558;50.178;8.370;2023-03-23T05:30:25;97329.03;;;11.45;92.89
18858;BME280;9558;50.178;8.370;2023-03-23T05:32:53;97335.41;;;11.43;93.90
18858;BME280;9558;50.178;8.370;2023-03-23T05:35:20;97340.38;;;11.44;93.46
18858;BME280;9558;50.178;8.370;2023-03-23T05:37:47;97334.81;;;11.47;92.73
18858;BME280;9558;50.178;8.370;2023-03-23T05:40:14;97334.81;;;11.47;94.43
18858;BME280;9558;50.178;8.370;2023-03-23T05:42:41;97342.78;;;11.46;93.84
18858;BME280;9558;50.178;8.370;2023-03-23T05:45:10;97322.06;;;11.52;93.37
18858;BME280;9558;50.178;8.370;2023-03-23T05:47:37;97349.97;;;11.50;93.47
18858;BME280;9558;50.178;8.370;2023-03-23T05:50:05;97340.41;;;11.51;93.44
18858;BME280;9558;50.178;8.370;2023-03-23T05:52:33;97356.56;;;11.46;93.89
18858;BME280;9558;50.178;8.370;2023-03-23T05:55:00;97364.31;;;11.46;94.35
18858;BME280;9558;50.178;8.370;2023-03-23T05:57:28;97356.75;;;11.45;94.80
18858;BME280;9558;50.178;8.370;2023-03-23T05:59:55;97353.34;;;11.44;95.06
18858;BME280;9558;50.178;8.370;2023-03-23T06:02:23;97348.78;;;11.46;94.78
18858;BME280;9558;50.178;8.370;2023-03-23T06:04:49;97354.34;;;11.43;96.17
18858;BME280;9558;50.178;8.370;2023-03-23T06:07:22;97356.34;;;11.41;97.25
18858;BME280;9558;50.178;8.370;2023-03-23T06:09:51;97367.09;;;11.38;97.97
18858;BME280;9558;50.178;8.370;2023-03-23T06:12:17;97364.13;;;11.41;96.77
18858;BME280;9558;50.178;8.370;2023-03-23T06:14:45;97362.50;;;11.40;96.54
18858;BME280;9558;50.178;8.370;2023-03-23T06:17:12;97358.72;;;11.43;96.98
18858;BME280;9558;50.178;8.370;2023-03-23T06:19:38;97362.50;;;11.40;97.84
18858;BME280;9558;50.178;8.370;2023-03-23T06:22:05;97357.72;;;11.37;100.00
18858;BME280;9558;50.178;8.370;2023-03-23T06:24:31;97352.34;;;11.45;98.02
18858;BME280;9558;50.178;8.370;2023-03-23T06:27:00;97365.91;;;11.47;98.75
18858;BME280;9558;50.178;8.370;2023-03-23T06:29:27;97363.72;;;11.44;99.38
18858;BME280;9558;50.178;8.370;2023-03-23T06:31:56;97366.91;;;11.46;99.10
18858;BME280;9558;50.178;8.370;2023-03-23T06:34:24;97361.13;;;11.51;99.38
18858;BME280;9558;50.178;8.370;2023-03-23T06:36:51;97371.88;;;11.54;99.35
18858;BME280;9558;50.178;8.370;2023-03-23T06:39:18;97384.44;;;11.57;99.43
18858;BME280;9558;50.178;8.370;2023-03-23T06:41:45;97388.59;;;11.58;99.48
18858;BME280;9558;50.178;8.370;2023-03-23T06:44:13;97390.63;;;11.56;99.82
18858;BME280;9558;50.178;8.370;2023-03-23T06:46:40;97396.59;;;11.57;100.00
18858;BME280;9558;50.178;8.370;2023-03-23T06:49:07;97389.03;;;11.62;99.57
18858;BME280;9558;50.178;8.370;2023-03-23T06:51:34;97388.03;;;11.63;99.20
18858;BME280;9558;50.178;8.370;2023-03-23T06:54:00;97388.03;;;11.63;99.62
18858;BME280;9558;50.178;8.370;2023-03-23T06:56:27;97380.22;;;11.70;99.31
18858;BME280;9558;50.178;8.370;2023-03-23T06:58:53;97387.63;;;11.66;99.79
18858;BME280;9558;50.178;8.370;2023-03-23T07:01:21;97399.75;;;11.66;99.92
18858;BME280;9558;50.178;8.370;2023-03-23T07:03:48;97395.78;;;11.70;99.32
18858;BME280;9558;50.178;8.370;2023-03-23T07:06:15;97391.22;;;11.72;99.56
18858;BME280;9558;50.178;8.370;2023-03-23T07:08:41;97406.97;;;11.64;100.00
18858;BME280;9558;50.178;8.370;2023-03-23T07:11:08;97415.31;;;11.66;100.00
18858;BME280;9558;50.178;8.370;2023-03-23T07:13:36;97407.34;;;11.67;100.00
18858;BME280;9558;50.178;8.370;2023-03-23T07:16:05;97403.34;;;11.71;99.74
18858;BME280;9558;50.178;8.370;2023-03-23T07:18:33;97397.97;;;11.73;99.41
18858;BME280;9558;50.178;8.370;2023-03-23T07:21:00;97405.75;;;11.73;100.00
18858;BME280;9558;50.178;8.370;2023-03-23T07:23:28;97412.13;;;11.77;99.41
18858;BME280;9558;50.178;8.370;2023-03-23T07:25:55;97418.91;;;11.78;99.66
18858;BME280;9558;50.178;8.370;2023-03-23T07:28:22;97418.50;;;11.74;100.00
18858;BME280;9558;50.178;8.370;2023-03-23T07:30:49;97414.13;;;11.75;100.00
18858;BME280;9558;50.178;8.370;2023-03-23T07:33:15;97418.13;;;11.78;99.75
18858;BME280;9558;50.178;8.370;2023-03-23T07:35:43;97420.91;;;11.76;100.00
18858;BME280;9558;50.178;8.370;2023-03-23T07:38:11;97426.09;;;11.76;100.00
18858;BME280;9558;50.178;8.370;2023-03-23T07:40:37;97423.09;;;11.79;100.00
18858;BME280;9558;50.178;8.370;2023-03-23T07:43:04;97419.50;;;11.80;99.87
18858;BME280;9558;50.178;8.370;2023-03-23T07:45:30;97422.06;;;11.80;100.00
18858;BME280;9558;50.178;8.370;2023-03-23T07:47:57;97425.28;;;11.82;100.00
18858;BME280;9558;50.178;8.370;2023-03-23T07:50:27;97428.88;;;11.81;100.00
18858;BME280;9558;50.178;8.370;2023-03-23T07:52:56;97425.28;;;11.82;100.00
18858;BME280;9558;50.178;8.370;2023-03-23T07:55:24;97428.09;;;11.81;100.00
18858;BME280;9558;50.178;8.370;2023-03-23T07:57:54;97425.28;;;11.82;100.00
18858;BME280;9558;50.178;8.370;2023-03-23T08:00:22;97434.25;;;11.80;100.00
18858;BME280;9558;50.178;8.370;2023-03-23T08:02:50;97438.84;;;11.78;100.00
18858;BME280;9558;50.178;8.370;2023-03-23T08:05:18;97437.63;;;11.80;100.00
18858;BME280;9558;50.178;8.370;2023-03-23T08:07:45;97449.59;;;11.81;100.00
18858;BME280;9558;50.178;8.370;2023-03-23T08:10:15;97444.41;;;11.81;100.00
18858;BME280;9558;50.178;8.370;2023-03-23T08:12:43;97440.84;;;11.82;100.00
18858;BME280;9558;50.178;8.370;2023-03-23T08:15:12;97442.03;;;11.86;100.00
18858;BME280;9558;50.178;8.370;2023-03-23T08:17:40;97438.03;;;11.90;100.00
18858;BME280;9558;50.178;8.370;2023-03-23T08:20:09;97438.47;;;11.94;100.00
18858;BME280;9558;50.178;8.370;2023-03-23T08:22:38;97449.22;;;11.98;100.00
18858;BME280;9558;50.178;8.370;2023-03-23T08:25:07;97438.88;;;11.98;100.00
18858;BME280;9558;50.178;8.370;2023-03-23T08:27:36;97446.44;;;11.99;100.00
18858;BME280;9558;50.178;8.370;2023-03-23T08:30:04;97453.03;;;12.02;100.00
18858;BME280;9558;50.178;8.370;2023-03-23T08:32:32;97469.97;;;11.98;100.00
18858;BME280;9558;50.178;8.370;2023-03-23T08:34:59;97472.75;;;12.03;100.00
18858;BME280;9558;50.178;8.370;2023-03-23T08:37:26;97475.94;;;12.05;100.00
18858;BME280;9558;50.178;8.370;2023-03-23T08:39:53;97484.31;;;12.07;100.00
18858;BME280;9558;50.178;8.370;2023-03-23T08:42:20;97473.94;;;12.20;100.00
18858;BME280;9558;50.178;8.370;2023-03-23T08:44:48;97466.31;;;12.25;100.00
18858;BME280;9558;50.178;8.370;2023-03-23T08:47:15;97472.91;;;12.28;100.00
18858;BME280;9558;50.178;8.370;2023-03-23T08:49:43;97469.09;;;12.37;100.00
18858;BME280;9558;50.178;8.370;2023-03-23T08:52:10;97462.28;;;12.43;100.00
18858;BME280;9558;50.178;8.370;2023-03-23T08:54:37;97460.88;;;12.47;100.00
18858;BME280;9558;50.178;8.370;2023-03-23T08:57:04;97459.47;;;12.51;100.00
18858;BME280;9558;50.178;8.370;2023-03-23T08:59:30;97463.44;;;12.60;100.00
18858;BME280;9558;50.178;8.370;2023-03-23T09:01:58;97467.03;;;12.66;100.00
18858;BME280;9558;50.178;8.370;2023-03-23T09:04:25;97465.00;;;12.75;100.00
18858;BME280;9558;50.178;8.370;2023-03-23T09:06:54;97459.16;;;12.79;100.00
18858;BME280;9558;50.178;8.370;2023-03-23T09:09:21;97450.94;;;12.89;100.00
18858;BME280;9558;50.178;8.370;2023-03-23T09:11:47;97448.69;;;13.00;99.95
18858;BME280;9558;50.178;8.370;2023-03-23T09:14:14;97448.03;;;13.11;98.97
18858;BME280;9558;50.178;8.370;2023-03-23T09:16:41;97453.97;;;13.18;98.17
18858;BME280;9558;50.178;8.370;2023-03-23T09:19:09;97446.34;;;13.23;97.78
18858;BME280;9558;50.178;8.370;2023-03-23T09:21:35;97439.50;;;13.36;96.98
18858;BME280;9558;50.178;8.370;2023-03-23T09:24:02;97447.88;;;13.38;95.16
18858;BME280;9558;50.178;8.370;2023-03-23T09:26:30;97451.59;;;13.48;96.13
18858;BME280;9558;50.178;8.370;2023-03-23T09:28:57;97465.34;;;13.56;92.54
18858;BME280;9558;50.178;8.370;2023-03-23T09:31:23;97459.53;;;13.60;93.51
18858;BME280;9558;50.178;8.370;2023-03-23T09:33:51;97457.94;;;13.59;92.42
18858;BME280;9558;50.178;8.370;2023-03-23T09:36:19;97479.03;;;13.70;93.23
18858;BME280;9558;50.178;8.370;2023-03-23T09:38:46;97478.03;;;13.71;93.05
18858;BME280;9558;50.178;8.370;2023-03-23T09:41:19;97457.25;;;13.71;94.00
18858;BME280;9558;50.178;8.370;2023-03-23T09:43:59;97472.31;;;13.62;94.74
18858;BME280;9558;50.178;8.370;2023-03-23T09:46:38;97458.56;;;13.55;94.61
18858;BME280;9558;50.178;8.370;2023-03-23T09:49:10;97477.75;;;13.54;95.42
18858;BME280;9558;50.178;8.370;2023-03-23T09:51:44;97467.41;;;13.47;96.49
18858;BME280;9558;50.178;8.370;2023-03-23T09:54:18;97477.00;;;13.46;95.96
18858;BME280;9558;50.178;8.370;2023-03-23T09:56:46;97484.41;;;13.43;97.38
18858;BME280;9558;50.178;8.370;2023-03-23T09:59:19;97475.84;;;13.42;97.50
18858;BME280;9558;50.178;8.370;2023-03-23T10:01:50;97488.66;;;13.37;97.81
18858;BME280;9558;50.178;8.370;2023-03-23T10:04:26;97487.03;;;13.43;97.37
18858;BME280;9558;50.178;8.370;2023-03-23T10:06:58;97486.22;;;13.42;97.29
18858;BME280;9558;50.178;8.370;2023-03-23T10:09:26;97489.47;;;13.38;96.35
18858;BME280;9558;50.178;8.370;2023-03-23T10:12:01;97487.44;;;13.40;94.61
18858;BME280;9558;50.178;8.370;2023-03-23T10:14:39;97489.03;;;13.34;94.89
18858;BME280;9558;50.178;8.370;2023-03-23T10:17:14;97501.25;;;13.34;95.34
18858;BME280;9558;50.178;8.370;2023-03-23T10:19:47;97496.84;;;13.34;95.59
18858;BME280;9558;50.178;8.370;2023-03-23T10:22:31;97493.06;;;13.37;95.20
18858;BME280;9558;50.178;8.370;2023-03-23T10:25:03;97502.69;;;13.23;92.78
18858;BME280;9558;50.178;8.370;2023-03-23T10:27:34;97496.66;;;13.36;93.74
18858;BME280;9558;50.178;8.370;2023-03-23T10:30:12;97496.28;;;13.32;93.67
18858;BME280;9558;50.178;8.370;2023-03-23T10:32:43;97497.84;;;13.33;93.45
18858;BME280;9558;50.178;8.370;2023-03-23T10:35:13;97496.25;;;13.39;92.32
18858;BME280;9558;50.178;8.370;2023-03-23T10:37:46;97503.38;;;13.50;92.78
18858;BME280;9558;50.178;8.370;2023-03-23T10:40:15;97493.34;;;13.54;90.66
18858;BME280;9558;50.178;8.370;2023-03-23T10:42:43;97508.53;;;13.57;88.97
18858;BME280;9558;50.178;8.370;2023-03-23T10:45:16;97494.91;;;13.61;89.54
18858;BME280;9558;50.178;8.370;2023-03-23T10:47:48;97485.66;;;13.65;88.05
18858;BME280;9558;50.178;8.370;2023-03-23T10:50:17;97481.28;;;13.66;87.81
18858;BME280;9558;50.178;8.370;2023-03-23T10:52:45;97488.00;;;13.74;86.59
18858;BME280;9558;50.178;8.370;2023-03-23T10:55:14;97500.63;;;13.70;86.29
18858;BME280;9558;50.178;8.370;2023-03-23T10:57:42;97500.84;;;13.69;87.53
18858;BME280;9558;50.178;8.370;2023-03-23T11:00:18;97501.44;;;13.71;87.88
18858;BME280;9558;50.178;8.370;2023-03-23T11:02:47;97499.94;;;13.81;86.92
18858;BME280;9558;50.178;8.370;2023-03-23T11:05:18;97490.50;;;13.87;85.48
18858;BME280;9558;50.178;8.370;2023-03-23T11:07:53;97488.19;;;13.97;84.03
18858;BME280;9558;50.178;8.370;2023-03-23T11:10:22;97488.97;;;14.05;83.93
18858;BME280;9558;50.178;8.370;2023-03-23T11:12:51;97484.63;;;14.17;83.87
18858;BME280;9558;50.178;8.370;2023-03-23T11:15:28;97511.56;;;14.29;85.59
18858;BME280;9558;50.178;8.370;2023-03-23T11:17:56;97508.88;;;14.36;80.71
18858;BME280;9558;50.178;8.370;2023-03-23T11:20:24;97500.28;;;14.54;83.51
18858;BME280;9558;50.178;8.370;2023-03-23T11:22:53;97500.31;;;14.73;83.69
18858;BME280;9558;50.178;8.370;2023-03-23T11:25:20;97505.34;;;14.86;83.38
18858;BME280;9558;50.178;8.370;2023-03-23T11:27:48;97495.22;;;14.96;82.81
18858;BME280;9558;50.178;8.370;2023-03-23T11:30:22;97493.44;;;15.09;81.05
18858;BME280;9558;50.178;8.370;2023-03-23T11:32:49;97493.72;;;15.19;81.10
18858;BME280;9558;50.178;8.370;2023-03-23T11:35:20;97498.50;;;15.22;80.11
18858;BME280;9558;50.178;8.370;2023-03-23T11:37:49;97505.41;;;15.28;79.72
18858;BME280;9558;50.178;8.370;2023-03-23T11:40:20;97510.66;;;15.40;80.56
18858;BME280;9558;50.178;8.370;2023-03-23T11:42:49;97504.13;;;15.49;80.67
18858;BME280;9558;50.178;8.370;2023-03-23T11:45:30;97511.97;;;15.61;79.39
18858;BME280;9558;50.178;8.370;2023-03-23T11:48:06;97510.28;;;15.55;77.94
18858;BME280;9558;50.178;8.370;2023-03-23T11:50:45;97514.44;;;15.56;77.78
18858;BME280;9558;50.178;8.370;2023-03-23T11:53:22;97513.75;;;15.49;78.51
18858;BME280;9558;50.178;8.370;2023-03-23T11:56:08;97514.41;;;15.32;77.22
18858;BME280;9558;50.178;8.370;2023-03-23T11:58:37;97516.16;;;15.20;77.73
18858;BME280;9558;50.178;8.370;2023-03-23T12:01:09;97505.91;;;15.07;77.05
18858;BME280;9558;50.178;8.370;2023-03-23T12:03:56;97501.06;;;14.92;78.17
18858;BME280;9558;50.178;8.370;2023-03-23T12:06:33;97496.63;;;14.80;78.81
18858;BME280;9558;50.178;8.370;2023-03-23T12:09:15;97495.53;;;14.69;80.14
18858;BME280;9558;50.178;8.370;2023-03-23T12:11:55;97490.47;;;14.56;80.20
18858;BME280;9558;50.178;8.370;2023-03-23T12:14:29;97486.53;;;14.47;80.31
18858;BME280;9558;50.178;8.370;2023-03-23T12:17:08;97482.25;;;14.34;80.73
18858;BME280;9558;50.178;8.370;2023-03-23T12:19:42;97470.78;;;14.23;80.35
18858;BME280;9558;50.178;8.370;2023-03-23T12:22:21;97464.09;;;14.09;81.00
18858;BME280;9558;50.178;8.370;2023-03-23T12:25:01;97461.78;;;14.00;81.95
18858;BME280;9558;50.178;8.370;2023-03-23T12:27:41;97457.59;;;13.99;82.62
18858;BME280;9558;50.178;8.370;2023-03-23T12:30:24;97452.72;;;14.03;83.93
18858;BME280;9558;50.178;8.370;2023-03-23T12:33:07;97443.44;;;14.14;83.57
18858;BME280;9558;50.178;8.370;2023-03-23T12:35:45;97447.94;;;14.25;83.03
18858;BME280;9558;50.178;8.370;2023-03-23T12:38:37;97448.59;;;14.39;82.97
18858;BME280;9558;50.178;8.370;2023-03-23T12:41:15;97439.25;;;14.50;83.60
18858;BME280;9558;50.178;8.370;2023-03-23T12:43:49;97451.72;;;14.66;83.03
18858;BME280;9558;50.178;8.370;2023-03-23T12:46:41;97452.91;;;14.82;82.39
18858;BME280;9558;50.178;8.370;2023-03-23T12:49:14;97440.75;;;14.95;82.32
18858;BME280;9558;50.178;8.370;2023-03-23T12:51:47;97445.22;;;15.18;81.59
18858;BME280;9558;50.178;8.370;2023-03-23T12:54:19;97453.97;;;15.24;79.87
18858;BME280;9558;50.178;8.370;2023-03-23T12:56:52;97477.19;;;15.25;79.83
18858;BME280;9558;50.178;8.370;2023-03-23T12:59:29;97474.94;;;15.29;79.39
18858;BME280;9558;50.178;8.370;2023-03-23T13:02:06;97476.31;;;15.31;79.80
18858;BME280;9558;50.178;8.370;2023-03-23T13:04:40;97445.94;;;15.37;79.10
18858;BME280;9558;50.178;8.370;2023-03-23T13:07:14;97455.69;;;15.42;78.35
18858;BME280;9558;50.178;8.370;2023-03-23T13:09:48;97455.00;;;15.34;77.81
18858;BME280;9558;50.178;8.370;2023-03-23T13:12:17;97456.25;;;15.32;77.83
18858;BME280;9558;50.178;8.370;2023-03-23T13:14:55;97451.59;;;15.22;78.49
18858;BME280;9558;50.178;8.370;2023-03-23T13:17:29;97462.88;;;15.16;79.85
18858;BME280;9558;50.178;8.370;2023-03-23T13:20:12;97462.31;;;15.14;79.48
18858;BME280;9558;50.178;8.370;2023-03-23T13:22:45;97452.34;;;15.11;80.60
18858;BME280;9558;50.178;8.370;2023-03-23T13:25:19;97459.94;;;15.12;79.82
18858;BME280;9558;50.178;8.370;2023-03-23T13:27:57;97452.91;;;15.13;81.20